Data for 03/31/2005

Time Sea-Level Adjusted Pressure Absolute Pressure Temperature Relative Humidity Dew Point   
(mb) (inHg) (mb) (inHg) (C) (F) (%) (C) (F)
00:05 1024 30.24 853 25.19 -0.9 30.4 59 -7.9 17.7
00:10 1024 30.24 853 25.19 -0.8 30.6 59 -7.9 17.8
00:15 1024 30.24 853 25.19 -0.7 30.7 58 -7.9 17.8
00:20 1024 30.24 853 25.19 -0.7 30.8 58 -8 17.5
00:25 1024 30.24 853 25.19 -0.7 30.8 58 -8.1 17.5
00:30 1024 30.24 853 25.19 -0.6 30.8 59 -7.8 18
00:35 1024 30.24 853 25.19 -0.6 30.9 58 -7.9 17.7
00:40 1024 30.24 854 25.22 -0.6 30.8 57 -8.1 17.4
00:45 1024 30.24 854 25.22 -0.7 30.8 59 -7.7 18.2
00:50 1025 30.27 854 25.22 -0.7 30.8 59 -7.7 18.2
00:55 1025 30.27 854 25.22 -0.6 30.9 58 -7.9 17.7
01:00 1025 30.27 854 25.22 -0.6 30.9 57 -8.1 17.4
01:05 1025 30.27 854 25.22 -0.6 30.9 57 -8.1 17.3
01:10 1025 30.27 854 25.22 -0.6 30.9 57 -8.1 17.5
01:15 1025 30.27 854 25.22 -0.6 30.9 58 -7.8 17.9
01:20 1025 30.27 854 25.22 -0.7 30.8 60 -7.5 18.4
01:25 1025 30.27 854 25.22 -0.7 30.8 59 -7.7 18.1
01:30 1025 30.27 854 25.22 -0.7 30.7 59 -7.6 18.2
01:35 1025 30.27 854 25.22 -0.7 30.8 59 -7.6 18.2
01:40 1025 30.27 854 25.22 -0.6 30.9 58 -7.8 18
01:45 1025 30.27 854 25.22 -0.6 30.9 59 -7.7 18.1
01:50 1025 30.27 854 25.22 -0.6 31 58 -7.8 18
01:55 1025 30.27 854 25.22 -0.6 30.9 57 -8.1 17.4
02:00 1025 30.27 854 25.22 -0.5 31.1 57 -8 17.6
02:05 1025 30.27 854 25.22 -0.6 31 56 -8.2 17.2
02:10 1025 30.27 855 25.25 -0.6 30.9 56 -8.3 17.1
02:15 1025 30.27 855 25.25 -0.7 30.7 58 -8 17.6
02:20 1025 30.27 855 25.25 -0.7 30.7 57 -8.2 17.3
02:25 1025 30.27 855 25.25 -0.8 30.5 58 -8 17.6
02:30 1026 30.3 855 25.25 -1 30.3 59 -7.9 17.7
02:35 1026 30.3 855 25.25 -1.1 30 60 -7.9 17.7
02:40 1026 30.3 855 25.25 -1.1 30 60 -8 17.6
02:45 1026 30.3 855 25.25 -1.2 29.9 58 -8.4 16.9
02:50 1026 30.3 855 25.25 -1.2 29.8 59 -8.2 17.3
02:55 1026 30.3 855 25.25 -1.3 29.6 60 -8.2 17.3
03:00 1026 30.3 855 25.25 -1.4 29.4 58 -8.6 16.6
03:05 1026 30.3 855 25.25 -1.5 29.2 59 -8.5 16.7
03:10 1026 30.3 855 25.25 -1.5 29.2 59 -8.5 16.6
03:15 1026 30.3 855 25.25 -1.5 29.3 59 -8.5 16.6
03:20 1026 30.3 855 25.25 -1.5 29.4 58 -8.6 16.5
03:25 1026 30.3 855 25.25 -1.5 29.4 59 -8.4 16.8
03:30 1026 30.3 855 25.25 -1.5 29.3 60 -8.4 17
03:35 1026 30.3 855 25.25 -1.5 29.3 61 -8.1 17.4
03:40 1026 30.3 855 25.25 -1.6 29.2 62 -8 17.7
03:45 1026 30.3 856 25.28 -1.6 29.1 63 -7.8 18
03:50 1026 30.3 856 25.28 -1.7 29 64 -7.7 18.2
03:55 1026 30.3 856 25.28 -1.8 28.8 62 -8.1 17.4
04:00 1026 30.3 856 25.28 -1.7 28.9 61 -8.2 17.2
04:05 1027 30.33 856 25.28 -1.7 28.9 60 -8.5 16.7
04:10 1027 30.33 856 25.28 -1.6 29.2 56 -9.1 15.6
04:15 1027 30.33 856 25.28 -1.5 29.4 57 -8.9 16
04:20 1027 30.33 856 25.28 -1.4 29.4 55 -9.4 15.2
04:25 1027 30.33 856 25.28 -1.4 29.5 55 -9.2 15.4
04:30 1027 30.33 856 25.28 -1.4 29.5 56 -9.2 15.4
04:35 1027 30.33 856 25.28 -1.5 29.3 56 -9.1 15.6
04:40 1027 30.33 856 25.28 -1.6 29.2 56 -9.1 15.6
04:45 1027 30.33 856 25.28 -1.6 29.1 57 -9.1 15.6
04:50 1027 30.33 856 25.28 -1.7 29 56 -9.4 15.1
04:55 1027 30.33 856 25.28 -1.6 29.1 56 -9.2 15.5
05:00 1027 30.33 856 25.28 -1.6 29.2 56 -9.1 15.5
05:05 1027 30.33 857 25.31 -1.6 29.2 58 -8.8 16.1
05:10 1027 30.33 857 25.31 -1.6 29.2 59 -8.5 16.7
05:15 1027 30.33 857 25.31 -1.6 29.1 59 -8.7 16.4
05:20 1027 30.33 857 25.31 -1.7 29 58 -9 15.8
05:25 1027 30.33 857 25.31 -1.6 29.1 57 -9 15.8
05:30 1028 30.36 857 25.31 -1.6 29.2 56 -9.1 15.6
05:35 1028 30.36 857 25.31 -1.5 29.3 56 -9.1 15.6
05:40 1028 30.36 857 25.31 -1.5 29.3 56 -9.1 15.6
05:45 1028 30.36 857 25.31 -1.5 29.2 57 -9.1 15.7
05:50 1028 30.36 857 25.31 -1.5 29.3 56 -9.1 15.7
05:55 1028 30.36 857 25.31 -1.5 29.2 56 -9.1 15.6
06:00 1028 30.36 857 25.31 -1.7 29 58 -9 15.9
06:05 1028 30.36 857 25.31 -1.8 28.8 57 -9.1 15.5
06:10 1028 30.36 857 25.31 -1.9 28.6 58 -9.1 15.7
06:15 1028 30.36 857 25.31 -1.9 28.5 58 -9.1 15.6
06:20 1028 30.36 857 25.31 -2 28.4 58 -9.1 15.5
06:25 1028 30.36 857 25.31 -2 28.4 58 -9.3 15.3
06:30 1028 30.36 857 25.31 -1.9 28.5 59 -9 15.9
06:35 1028 30.36 857 25.31 -1.9 28.6 57 -9.3 15.2
06:40 1028 30.36 857 25.31 -1.9 28.6 58 -9.2 15.5
06:45 1028 30.36 858 25.34 -2.1 28.3 58 -9.3 15.3
06:50 1028 30.36 858 25.34 -2.1 28.2 58 -9.4 15.1
06:55 1028 30.36 858 25.34 -2 28.3 58 -9.3 15.3
07:00 1028 30.36 858 25.34 -2 28.4 60 -8.8 16.2
07:05 1029 30.39 858 25.34 -2.3 27.9 62 -8.7 16.4
07:10 1029 30.39 858 25.34 -2.1 28.2 58 -9.3 15.3
07:15 1029 30.39 858 25.34 -2 28.5 57 -9.3 15.2
07:20 1029 30.39 858 25.34 -1.8 28.7 57 -9.1 15.5
07:25 1029 30.39 858 25.34 -1.7 29 57 -9.1 15.7
07:30 1029 30.39 858 25.34 -1.4 29.4 56 -9 15.7
07:35 1029 30.39 858 25.34 -1.1 30.1 56 -8.7 16.3
07:40 1029 30.39 858 25.34 -1.3 29.6 56 -8.9 15.9
07:45 1029 30.39 858 25.34 -1.2 29.8 54 -9.3 15.3
07:50 1029 30.39 858 25.34 -0.4 31.2 51 -9.3 15.2
07:55 1029 30.39 858 25.34 0.5 32.8 49 -9 15.8
08:00 1029 30.39 858 25.34 0.5 33 51 -8.5 16.8
08:05 1029 30.39 858 25.34 0.4 32.7 51 -8.6 16.5
08:10 1029 30.39 858 25.34 -0.4 31.4 53 -8.8 16.1
08:15 1029 30.39 858 25.34 -0.6 30.9 53 -9.1 15.6
08:20 1029 30.39 858 25.34 -0.2 31.7 51 -9 15.7
08:25 1029 30.39 858 25.34 0.4 32.7 49 -9.1 15.6
08:30 1029 30.39 858 25.34 0.4 32.7 50 -8.7 16.3
08:35 1029 30.39 858 25.34 1.3 34.3 47 -8.7 16.3
08:40 1029 30.39 858 25.34 1.9 35.4 46 -8.5 16.6
08:45 1029 30.39 858 25.34 1.7 35.1 46 -8.8 16.2
08:50 1029 30.39 858 25.34 2.3 36.1 46 -8.3 17.1
08:55 1029 30.39 858 25.34 1.7 35.1 47 -8.5 16.6
09:00 1029 30.39 858 25.34 1.9 35.4 44 -9.2 15.4
09:05 1029 30.39 858 25.34 2.6 36.7 42 -9 15.8
09:10 1029 30.39 858 25.34 2.1 35.8 43 -9.2 15.4
09:15 1029 30.39 858 25.34 2.5 36.5 39 -10 14
09:20 1029 30.39 858 25.34 2.8 37 40 -9.5 14.9
09:25 1029 30.39 858 25.34 3.1 37.5 40 -9.3 15.3
09:30 1029 30.39 858 25.34 3.5 38.3 37 -9.9 14.2
09:35 1029 30.39 858 25.34 3.7 38.7 35 -10.3 13.4
09:40 1029 30.39 858 25.34 3.4 38.1 37 -9.8 14.3
09:45 1029 30.39 858 25.34 3.4 38.2 37 -9.9 14.2
09:50 1029 30.39 858 25.34 4.3 39.7 35 -9.7 14.5
09:55 1029 30.39 858 25.34 4.2 39.6 33 -10.5 13.1
10:00 1029 30.39 858 25.34 4 39.1 35 -10.2 13.6
10:05 1029 30.39 858 25.34 3.8 38.9 34 -10.6 13
10:10 1029 30.39 858 25.34 3.6 38.5 33 -11.3 11.7
10:15 1029 30.39 858 25.34 4.1 39.3 35 -10 13.9
10:20 1029 30.39 858 25.34 4.2 39.5 33 -10.7 12.7
10:25 1029 30.39 858 25.34 3.9 39.1 32 -11.1 12
10:30 1029 30.39 858 25.34 4.2 39.5 32 -11.3 11.7
10:35 1029 30.39 858 25.34 4.2 39.6 32 -10.9 12.3
10:40 1029 30.39 858 25.34 4.3 39.7 32 -11.2 11.8
10:45 1029 30.39 858 25.34 4.8 40.6 30 -11.2 11.8
10:50 1029 30.39 858 25.34 4.8 40.6 30 -11.5 11.3
10:55 1029 30.39 858 25.34 5.1 41.1 28 -12 10.5
11:00 1029 30.39 858 25.34 4.7 40.5 30 -11.6 11
11:05 1029 30.39 858 25.34 4.7 40.4 30 -11.5 11.3
11:10 1029 30.39 858 25.34 4.8 40.6 29 -12 10.5
11:15 1029 30.39 858 25.34 5 41 27 -12.5 9.6
11:20 1029 30.39 858 25.34 5.4 41.7 28 -11.6 11.2
11:25 1029 30.39 858 25.34 5.6 42.1 29 -10.9 12.4
11:30 1029 30.39 858 25.34 5.7 42.2 28 -11.7 11
11:35 1029 30.39 858 25.34 5.6 42 29 -11.1 12
11:40 1029 30.39 858 25.34 5.4 41.8 27 -12.3 9.9
11:45 1029 30.39 858 25.34 4.1 39.4 28 -12.8 9
11:50 1028 30.36 858 25.34 4.9 40.9 29 -11.6 11.2
11:55 1028 30.36 858 25.34 5.5 42 28 -11.6 11.1
12:00 1028 30.36 858 25.34 5.3 41.5 27 -12.1 10.3
12:05 1028 30.36 858 25.34 5.3 41.6 26 -12.6 9.2
12:10 1028 30.36 858 25.34 4.8 40.6 27 -12.7 9.1
12:15 1028 30.36 857 25.31 5.1 41.2 28 -11.8 10.7
12:20 1028 30.36 857 25.31 5.9 42.7 24 -13 8.6
12:25 1028 30.36 857 25.31 5.5 41.8 27 -12.3 9.9
12:30 1028 30.36 857 25.31 5.2 41.4 27 -12.4 9.7
12:35 1028 30.36 857 25.31 4.7 40.5 27 -12.7 9.1
12:40 1028 30.36 857 25.31 4.9 40.9 29 -11.7 11
12:45 1028 30.36 857 25.31 6.3 43.3 27 -11.3 11.6
12:50 1028 30.36 857 25.31 6.1 43.1 26 -12.1 10.3
12:55 1028 30.36 857 25.31 5.2 41.4 26 -12.8 8.9
13:00 1028 30.36 857 25.31 5.8 42.5 27 -12 10.4
13:05 1028 30.36 857 25.31 6.5 43.6 25 -12 10.4
13:10 1027 30.33 857 25.31 5.4 41.7 26 -12.6 9.3
13:15 1027 30.33 857 25.31 4.6 40.3 27 -12.8 9
13:20 1027 30.33 857 25.31 4.8 40.7 27 -12.5 9.5
13:25 1027 30.33 857 25.31 5.5 41.9 26 -12.6 9.2
13:30 1027 30.33 856 25.28 6.9 44.4 23 -12.8 9
13:35 1027 30.33 856 25.28 6.8 44.3 21 -13.9 7
13:40 1027 30.33 856 25.28 6.9 44.5 24 -12.2 10
13:45 1027 30.33 856 25.28 8.1 46.5 20 -13.9 7
13:50 1027 30.33 856 25.28 7.7 45.9 21 -13.4 7.8
13:55 1027 30.33 856 25.28 8.2 46.7 20 -13.8 7.1
14:00 1027 30.33 856 25.28 7.7 45.9 18 -15.1 4.8
14:05 1027 30.33 856 25.28 7.8 46.1 17 -15.7 3.8
14:10 1027 30.33 856 25.28 8.1 46.5 16 -16.5 2.3
14:15 1027 30.33 856 25.28 7.8 46 19 -14.6 5.7
14:20 1027 30.33 856 25.28 8.3 47 17 -15.4 4.4
14:25 1027 30.33 856 25.28 8.6 47.4 18 -14.5 6
14:30 1027 30.33 856 25.28 8.5 47.4 18 -14.5 5.9
14:35 1027 30.33 856 25.28 8.6 47.4 19 -13.9 6.9
14:40 1027 30.33 856 25.28 8.5 47.3 20 -13.5 7.7
14:45 1027 30.33 856 25.28 8.3 46.9 20 -13.5 7.7
14:50 1026 30.3 856 25.28 9 48.3 18 -14.3 6.2
14:55 1026 30.3 856 25.28 9.4 49 19 -13.4 8
15:00 1026 30.3 856 25.28 9 48.3 19 -13.5 7.6
15:05 1026 30.3 855 25.25 9.1 48.5 19 -13.5 7.6
15:10 1026 30.3 855 25.25 9.2 48.5 20 -12.6 9.3
15:15 1026 30.3 855 25.25 9.2 48.6 21 -12.2 10.1
15:20 1026 30.3 855 25.25 8.8 47.9 21 -12.1 10.2
15:25 1026 30.3 855 25.25 8.5 47.3 21 -12.6 9.4
15:30 1026 30.3 855 25.25 8.3 47 22 -12.2 10.1
15:35 1026 30.3 855 25.25 8.9 48 21 -12.2 10.1
15:40 1026 30.3 855 25.25 9.3 48.7 21 -11.9 10.5
15:45 1026 30.3 855 25.25 9.6 49.3 20 -12.3 9.9
15:50 1026 30.3 855 25.25 9.9 49.9 19 -12.5 9.5
15:55 1026 30.3 855 25.25 9.6 49.3 21 -11.8 10.8
16:00 1026 30.3 855 25.25 9.8 49.7 19 -12.7 9.2
16:05 1026 30.3 855 25.25 9.6 49.3 20 -12.3 9.8
16:10 1026 30.3 855 25.25 9.5 49.2 19 -12.9 8.8
16:15 1026 30.3 855 25.25 9.3 48.8 19 -13 8.6
16:20 1026 30.3 855 25.25 8.8 47.9 20 -13 8.7
16:25 1026 30.3 855 25.25 8.7 47.7 20 -13.3 8
16:30 1026 30.3 855 25.25 9.1 48.3 19 -13.5 7.8
16:35 1026 30.3 855 25.25 9.4 48.9 19 -13.2 8.3
16:40 1026 30.3 855 25.25 9.1 48.3 19 -13.1 8.3
16:45 1026 30.3 855 25.25 9.1 48.3 20 -13.1 8.5
16:50 1026 30.3 855 25.25 8.9 48 20 -12.6 9.2
16:55 1026 30.3 855 25.25 9.1 48.4 20 -12.8 8.9
17:00 1026 30.3 855 25.25 8.9 48 20 -12.6 9.3
17:05 1026 30.3 855 25.25 8.6 47.5 20 -12.9 8.8
17:10 1025 30.27 855 25.25 9.1 48.4 20 -12.6 9.3
17:15 1025 30.27 855 25.25 8.6 47.4 21 -12.9 8.8
17:20 1025 30.27 855 25.25 8.3 46.9 20 -13.3 8.1
17:25 1025 30.27 854 25.22 8.2 46.7 19 -14.1 6.7
17:30 1025 30.27 854 25.22 8.2 46.8 20 -13.4 7.9
17:35 1025 30.27 854 25.22 8.2 46.7 21 -12.9 8.7
17:40 1025 30.27 854 25.22 8.2 46.8 21 -13 8.6
17:45 1025 30.27 854 25.22 8.2 46.8 20 -13.3 8.1
17:50 1025 30.27 854 25.22 8 46.5 20 -13.5 7.8
17:55 1025 30.27 854 25.22 7.9 46.3 21 -13.4 8
18:00 1025 30.27 854 25.22 7.8 46.1 23 -12.3 9.8
18:05 1025 30.27 854 25.22 7.4 45.3 23 -12.3 9.9
18:10 1025 30.27 854 25.22 7.4 45.3 22 -12.8 9
18:15 1025 30.27 854 25.22 7.5 45.6 22 -12.8 9
18:20 1025 30.27 854 25.22 7.6 45.7 22 -12.8 8.9
18:25 1025 30.27 854 25.22 7.6 45.7 22 -12.8 8.9
18:30 1025 30.27 854 25.22 7.3 45.2 22 -13 8.7
18:35 1025 30.27 854 25.22 7 44.6 23 -12.9 8.8
18:40 1025 30.27 854 25.22 6.9 44.5 23 -12.7 9.2
18:45 1025 30.27 854 25.22 6.7 44 24 -12.8 9
18:50 1025 30.27 854 25.22 6.4 43.6 24 -12.7 9.1
18:55 1025 30.27 854 25.22 6.1 43 29 -10.7 12.7
19:00 1025 30.27 854 25.22 5.7 42.2 34 -9 15.7
19:05 1025 30.27 854 25.22 5.2 41.3 38 -8 17.6
19:10 1025 30.27 854 25.22 4.8 40.6 40 -7.7 18.2
19:15 1024 30.24 854 25.22 4.5 40.1 41 -7.7 18.1
19:20 1025 30.27 854 25.22 4.1 39.4 41 -7.9 17.7
19:25 1024 30.24 854 25.22 4.1 39.3 41 -7.9 17.7
19:30 1024 30.24 854 25.22 4 39.2 42 -7.8 17.9
19:35 1025 30.27 854 25.22 3.9 39.1 41 -8.2 17.2
19:40 1025 30.27 854 25.22 3.7 38.7 42 -8.2 17.3
19:45 1025 30.27 854 25.22 3.4 38.1 45 -7.6 18.4
19:50 1025 30.27 854 25.22 2.9 37.2 46 -7.6 18.3
19:55 1025 30.27 854 25.22 2.8 37 45 -8 17.7
20:00 1025 30.27 854 25.22 2.9 37.2 45 -7.9 17.8
20:05 1025 30.27 854 25.22 3.1 37.6 44 -8.1 17.4
20:10 1025 30.27 854 25.22 3.2 37.7 45 -7.8 18
20:15 1025 30.27 854 25.22 3.1 37.6 44 -7.9 17.8
20:20 1025 30.27 854 25.22 3.1 37.5 43 -8.2 17.2
20:25 1025 30.27 854 25.22 3 37.3 46 -7.6 18.3
20:30 1025 30.27 854 25.22 2.3 36.1 46 -8.1 17.4
20:35 1025 30.27 854 25.22 2.7 36.8 44 -8.5 16.6
20:40 1025 30.27 854 25.22 2.7 36.9 41 -9.2 15.5
20:45 1025 30.27 854 25.22 2.9 37.3 41 -9.2 15.4
20:50 1025 30.27 854 25.22 3 37.4 40 -9.4 15.1
20:55 1025 30.27 854 25.22 2.9 37.2 41 -9.1 15.5
21:00 1025 30.27 854 25.22 2.9 37.2 39 -9.7 14.5
21:05 1025 30.27 854 25.22 3 37.4 40 -9.4 15
21:10 1025 30.27 854 25.22 3.1 37.5 39 -9.6 14.8
21:15 1025 30.27 854 25.22 3.1 37.5 37 -10.4 13.2
21:20 1025 30.27 854 25.22 3.3 38 36 -10.3 13.5
21:25 1025 30.27 854 25.22 3.3 38 37 -10.1 13.9
21:30 1024 30.24 854 25.22 3.3 38 35 -10.8 12.5
21:35 1024 30.24 854 25.22 3.5 38.4 33 -11.1 12
21:40 1024 30.24 854 25.22 3.6 38.4 35 -10.7 12.8
21:45 1024 30.24 854 25.22 3.5 38.2 35 -10.5 13.1
21:50 1024 30.24 854 25.22 3.4 38.1 36 -10.3 13.4
21:55 1024 30.24 854 25.22 3.2 37.7 38 -9.9 14.2
22:00 1024 30.24 854 25.22 2.9 37.2 39 -9.8 14.3
22:05 1024 30.24 854 25.22 2.8 37 42 -8.9 16
22:10 1024 30.24 854 25.22 2.6 36.6 42 -9 15.7
22:15 1024 30.24 854 25.22 2.1 35.8 44 -8.9 16
22:20 1024 30.24 854 25.22 1.8 35.2 44 -9.1 15.6
22:25 1024 30.24 854 25.22 1.8 35.2 44 -9.3 15.2
22:30 1024 30.24 853 25.19 1.9 35.4 43 -9.5 14.9
22:35 1024 30.24 853 25.19 1.8 35.3 43 -9.5 14.8
22:40 1024 30.24 853 25.19 1.9 35.4 42 -9.8 14.4
22:45 1024 30.24 854 25.22 1.9 35.5 42 -9.6 14.8
22:50 1024 30.24 853 25.19 1.8 35.3 44 -9.3 15.3
22:55 1024 30.24 853 25.19 1.7 35 44 -9.2 15.4
23:00 1024 30.24 853 25.19 1.6 34.9 44 -9.4 15.2
23:05 1024 30.24 853 25.19 1.5 34.7 45 -9.2 15.5
23:10 1024 30.24 853 25.19 1.6 34.8 43 -9.6 14.7
23:15 1024 30.24 853 25.19 1.7 35.1 42 -9.7 14.5
23:20 1024 30.24 853 25.19 1.9 35.4 43 -9.6 14.8
23:25 1024 30.24 853 25.19 2 35.7 41 -10 14
23:30 1024 30.24 853 25.19 2.1 35.8 41 -9.9 14.2
23:35 1024 30.24 853 25.19 2.2 35.9 41 -9.9 14.2
23:40 1024 30.24 853 25.19 2.3 36.2 39 -10.2 13.6
23:45 1024 30.24 853 25.19 2.5 36.5 38 -10.4 13.2
23:50 1024 30.24 853 25.19 2.7 36.9 38 -10.3 13.5
23:55 1024 30.24 853 25.19 2.6 36.7 40 -9.6 14.8
24:00 1024 30.24 853 25.19 2 35.6 44 -8.9 15.9